Time;durP1;ratioP1;P1;durP2;ratioP2;P2;SDS_P1;SDS_P2;PMS_P1;PMS_P2;Temp;Humidity;BMP_temperature;BMP_pressure;BME280_temperature;BME280_humidity;BME280_pressure;Samples;Min_cycle;Max_cycle;Signal;HPM_P1;HPM_P2
2022/08/26 00:00:23;;;;;;;;;1.00;1.00;;;;;;;;5059239;28;46175;-75
2022/08/26 00:02:48;;;;;;;;;0.00;0.00;;;;;;;;5078219;27;45410;-74
2022/08/26 00:05:14;;;;;;;;;1.00;1.00;;;;;;;;5077604;27;45495;-75
2022/08/26 00:07:39;;;;;;;;;1.00;1.00;;;;;;;;5077818;27;46980;-74
2022/08/26 00:10:04;;;;;;;;;0.00;0.00;;;;;;;;5077758;27;45356;-76
2022/08/26 00:12:29;;;;;;;;;0.00;0.00;;;;;;;;5078087;27;45317;-75
2022/08/26 00:14:55;;;;;;;;;0.00;0.00;;;;;;;;5077919;27;45307;-74
2022/08/26 00:17:20;;;;;;;;;0.33;0.33;;;;;;;;5077411;27;45350;-75
2022/08/26 00:19:45;;;;;;;;;2.00;0.00;;;;;;;;5077778;27;45562;-75
2022/08/26 00:22:11;;;;;;;;;0.00;0.00;;;;;;;;5077985;27;46326;-75
2022/08/26 00:24:36;;;;;;;;;0.67;0.67;;;;;;;;5077496;28;45400;-75
2022/08/26 00:27:02;;;;;;;;;0.00;0.00;;;;;;;;5077558;27;47215;-74
2022/08/26 00:29:27;;;;;;;;;1.00;1.00;;;;;;;;5077270;27;45322;-76
2022/08/26 00:31:53;;;;;;;;;0.00;0.00;;;;;;;;5077193;27;45486;-74
2022/08/26 00:34:18;;;;;;;;;1.00;1.00;;;;;;;;5077469;27;45497;-75
2022/08/26 00:36:43;;;;;;;;;0.00;0.00;;;;;;;;5077172;27;45934;-75
2022/08/26 00:39:09;;;;;;;;;1.00;1.00;;;;;;;;5077455;28;45332;-75
2022/08/26 00:41:34;;;;;;;;;1.00;1.00;;;;;;;;5058939;28;45341;-75
2022/08/26 00:44:00;;;;;;;;;0.67;0.67;;;;;;;;5076851;27;45313;-75
2022/08/26 00:46:27;;;;;;;;;0.33;0.33;;;;;;;;5077324;27;46053;-74
2022/08/26 00:48:58;;;;;;;;;0.00;0.00;;;;;;;;5077495;27;45357;-74
2022/08/26 00:51:24;;;;;;;;;0.33;0.33;;;;;;;;5077063;27;45330;-74
2022/08/26 00:53:52;;;;;;;;;3.67;0.33;;;;;;;;5077425;27;45413;-75
2022/08/26 00:56:23;;;;;;;;;0.00;0.00;;;;;;;;5076761;27;46228;-75
2022/08/26 00:58:49;;;;;;;;;1.00;1.00;;;;;;;;5076482;28;45217;-74
2022/08/26 01:01:15;;;;;;;;;1.00;1.00;;;;;;;;5076882;28;45288;-74
2022/08/26 01:03:42;;;;;;;;;1.00;1.00;;;;;;;;5077063;27;45288;-75
2022/08/26 01:06:08;;;;;;;;;0.00;0.00;;;;;;;;5076770;28;46028;-75
2022/08/26 01:08:34;;;;;;;;;0.33;0.33;;;;;;;;5076158;27;45470;-74
2022/08/26 01:11:00;;;;;;;;;1.00;1.00;;;;;;;;5077219;27;45457;-75
2022/08/26 01:13:26;;;;;;;;;1.00;1.00;;;;;;;;5076586;27;45407;-75
2022/08/26 01:15:53;;;;;;;;;0.00;0.00;;;;;;;;5070246;27;46162;-75
2022/08/26 01:18:19;;;;;;;;;1.00;1.00;;;;;;;;5077040;27;45316;-74
2022/08/26 01:20:56;;;;;;;;;0.33;0.33;;;;;;;;5076103;27;45407;-75
2022/08/26 01:23:22;;;;;;;;;0.00;0.00;;;;;;;;5077043;27;45291;-75
2022/08/26 01:25:51;;;;;;;;;0.33;0.33;;;;;;;;5076065;27;47367;-74
2022/08/26 01:28:20;;;;;;;;;1.00;1.00;;;;;;;;5076157;27;45502;-75
2022/08/26 01:30:47;;;;;;;;;1.67;1.67;;;;;;;;5076582;27;45717;-74
2022/08/26 01:33:14;;;;;;;;;2.00;1.00;;;;;;;;5076500;27;45444;-75
2022/08/26 01:35:40;;;;;;;;;0.00;0.00;;;;;;;;5076248;28;46270;-74
2022/08/26 01:38:05;;;;;;;;;0.00;0.00;;;;;;;;5076272;27;45458;-75
2022/08/26 01:40:35;;;;;;;;;1.00;1.00;;;;;;;;5076715;28;45703;-75
2022/08/26 01:43:01;;;;;;;;;0.00;0.00;;;;;;;;5075042;27;45464;-75
2022/08/26 01:45:28;;;;;;;;;0.33;0.33;;;;;;;;5076320;28;45579;-75
2022/08/26 01:47:55;;;;;;;;;1.00;1.00;;;;;;;;5076443;28;45432;-75
2022/08/26 01:50:23;;;;;;;;;1.00;0.67;;;;;;;;5062127;27;45302;-75
2022/08/26 01:52:49;;;;;;;;;0.33;0.33;;;;;;;;5076132;27;45454;-75
2022/08/26 01:55:16;;;;;;;;;0.00;0.00;;;;;;;;5075457;27;46155;-74
2022/08/26 01:57:43;;;;;;;;;1.00;1.00;;;;;;;;5076217;28;45485;-75
2022/08/26 02:00:12;;;;;;;;;1.00;1.00;;;;;;;;5075534;27;45491;-75
2022/08/26 02:02:37;;;;;;;;;0.67;0.67;;;;;;;;5075880;27;45366;-75
2022/08/26 02:05:04;;;;;;;;;1.00;1.00;;;;;;;;5075850;27;45394;-75
2022/08/26 02:07:30;;;;;;;;;1.00;1.00;;;;;;;;5075880;28;45399;-75
2022/08/26 02:09:55;;;;;;;;;1.00;1.00;;;;;;;;5075483;28;45448;-75
2022/08/26 02:12:21;;;;;;;;;1.00;1.00;;;;;;;;5076186;27;45294;-75
2022/08/26 02:14:50;;;;;;;;;1.00;1.00;;;;;;;;5075842;28;46033;-74
2022/08/26 02:17:17;;;;;;;;;1.00;1.00;;;;;;;;5075691;27;45307;-75
2022/08/26 02:19:45;;;;;;;;;1.00;1.00;;;;;;;;5075669;27;45465;-75
2022/08/26 02:22:13;;;;;;;;;0.33;0.33;;;;;;;;5075664;28;45449;-75
2022/08/26 02:24:46;;;;;;;;;1.00;1.00;;;;;;;;5075442;27;45973;-74
2022/08/26 02:27:11;;;;;;;;;1.33;1.33;;;;;;;;5075768;27;45432;-75
2022/08/26 02:29:40;;;;;;;;;1.00;1.00;;;;;;;;5075548;27;45359;-75
2022/08/26 02:32:08;;;;;;;;;0.33;0.33;;;;;;;;5075970;27;45453;-75
2022/08/26 02:34:33;;;;;;;;;1.00;1.00;;;;;;;;5071207;28;46135;-75
2022/08/26 02:37:00;;;;;;;;;1.00;1.00;;;;;;;;5075850;27;45391;-75
2022/08/26 02:39:25;;;;;;;;;0.33;0.33;;;;;;;;5075667;27;45326;-75
2022/08/26 02:41:50;;;;;;;;;1.00;1.00;;;;;;;;5061697;28;45462;-74
2022/08/26 02:44:16;;;;;;;;;0.67;0.67;;;;;;;;5075264;27;46018;-74
2022/08/26 02:46:41;;;;;;;;;0.00;0.00;;;;;;;;5075671;27;45423;-75
2022/08/26 02:49:06;;;;;;;;;1.00;1.00;;;;;;;;5076069;27;45382;-75
2022/08/26 02:51:32;;;;;;;;;2.00;1.33;;;;;;;;5075736;28;45406;-74
2022/08/26 02:53:57;;;;;;;;;1.67;1.67;;;;;;;;5076553;27;46029;-74
2022/08/26 02:56:22;;;;;;;;;1.00;0.33;;;;;;;;5079177;27;45284;-74
2022/08/26 02:58:47;;;;;;;;;3.00;1.33;;;;;;;;5079046;27;45399;-75
2022/08/26 03:01:23;;;;;;;;;1.00;1.00;;;;;;;;5079239;28;45356;-75
2022/08/26 03:03:48;;;;;;;;;1.00;1.00;;;;;;;;5078707;27;47190;-75
2022/08/26 03:06:14;;;;;;;;;1.00;1.00;;;;;;;;5079163;27;45367;-75
2022/08/26 03:08:39;;;;;;;;;1.67;1.67;;;;;;;;5078618;27;45471;-75
2022/08/26 03:11:04;;;;;;;;;1.00;1.00;;;;;;;;5079294;27;45393;-75
2022/08/26 03:13:30;;;;;;;;;0.67;0.67;;;;;;;;5060767;27;46345;-75
2022/08/26 03:15:55;;;;;;;;;2.00;2.00;;;;;;;;5078673;27;45362;-74
2022/08/26 03:18:20;;;;;;;;;3.00;1.67;;;;;;;;5078809;27;45395;-75
2022/08/26 03:20:45;;;;;;;;;4.00;2.00;;;;;;;;5078682;27;45344;-75
2022/08/26 03:23:11;;;;;;;;;2.67;1.00;;;;;;;;5078191;27;46709;-75
2022/08/26 03:25:37;;;;;;;;;1.00;1.00;;;;;;;;5078036;27;45498;-75
2022/08/26 03:28:02;;;;;;;;;1.00;1.00;;;;;;;;5078747;27;45377;-75
2022/08/26 03:30:40;;;;;;;;;2.00;2.00;;;;;;;;5078387;27;45563;-75
2022/08/26 03:33:06;;;;;;;;;1.33;1.33;;;;;;;;5078300;27;46919;-75
2022/08/26 03:35:32;;;;;;;;;1.67;1.67;;;;;;;;5078335;27;45368;-74
2022/08/26 03:37:58;;;;;;;;;2.00;2.00;;;;;;;;5078369;27;45372;-75
2022/08/26 03:40:23;;;;;;;;;1.00;1.00;;;;;;;;5078199;28;45420;-74
2022/08/26 03:42:49;;;;;;;;;2.00;2.00;;;;;;;;5078226;27;45394;-74
2022/08/26 03:45:14;;;;;;;;;1.33;1.33;;;;;;;;5078195;27;45478;-75
2022/08/26 03:47:39;;;;;;;;;2.00;2.00;;;;;;;;5078202;27;45287;-75
2022/08/26 03:50:06;;;;;;;;;1.00;1.00;;;;;;;;5078336;27;45482;-74
2022/08/26 03:52:32;;;;;;;;;2.33;2.33;;;;;;;;5077492;27;47052;-75
2022/08/26 03:54:57;;;;;;;;;3.00;2.33;;;;;;;;5059545;28;45347;-75
2022/08/26 03:57:22;;;;;;;;;1.00;1.00;;;;;;;;5078458;27;45348;-75
2022/08/26 03:59:48;;;;;;;;;2.33;2.33;;;;;;;;5077779;27;45450;-74
2022/08/26 04:02:13;;;;;;;;;0.33;0.33;;;;;;;;5077882;27;45994;-75
2022/08/26 04:04:39;;;;;;;;;2.00;2.00;;;;;;;;5077628;28;45353;-75
2022/08/26 04:07:05;;;;;;;;;2.00;2.00;;;;;;;;5076700;28;45566;-74
2022/08/26 04:09:30;;;;;;;;;1.33;1.33;;;;;;;;5077797;27;45379;-75
2022/08/26 04:11:57;;;;;;;;;0.67;0.67;;;;;;;;5078014;28;46292;-75
2022/08/26 04:14:23;;;;;;;;;1.00;1.00;;;;;;;;5077734;27;45381;-75
2022/08/26 04:16:49;;;;;;;;;1.67;1.67;;;;;;;;5077617;27;45403;-74
2022/08/26 04:19:15;;;;;;;;;3.67;1.33;;;;;;;;5077415;27;45589;-74
2022/08/26 04:21:40;;;;;;;;;1.67;1.67;;;;;;;;5077346;28;46154;-75
2022/08/26 04:24:07;;;;;;;;;4.67;3.00;;;;;;;;5077637;27;45315;-74
2022/08/26 04:26:36;;;;;;;;;2.00;2.00;;;;;;;;5077511;27;45506;-75
2022/08/26 04:29:05;;;;;;;;;2.00;1.67;;;;;;;;5077232;27;45536;-75
2022/08/26 04:31:32;;;;;;;;;1.33;1.33;;;;;;;;5077518;27;46172;-75
2022/08/26 04:33:57;;;;;;;;;1.00;1.00;;;;;;;;5077553;27;45379;-74
2022/08/26 04:36:22;;;;;;;;;1.33;1.33;;;;;;;;5077000;27;45367;-74
2022/08/26 04:38:49;;;;;;;;;2.00;2.00;;;;;;;;5077514;27;45477;-75
2022/08/26 04:41:15;;;;;;;;;1.00;1.00;;;;;;;;5063020;27;46351;-75
2022/08/26 04:43:40;;;;;;;;;1.67;1.67;;;;;;;;5077053;27;45580;-74
2022/08/26 04:46:06;;;;;;;;;1.33;1.33;;;;;;;;5077434;27;45451;-75
2022/08/26 04:48:32;;;;;;;;;2.00;2.00;;;;;;;;5058668;28;45356;-75
2022/08/26 04:50:58;;;;;;;;;1.67;1.67;;;;;;;;5076562;27;45479;-74
2022/08/26 04:53:24;;;;;;;;;2.00;1.67;;;;;;;;5077372;28;45313;-74
2022/08/26 04:55:49;;;;;;;;;1.67;1.67;;;;;;;;5076996;28;45374;-74
2022/08/26 04:58:18;;;;;;;;;2.00;2.00;;;;;;;;5059095;27;45357;-74
2022/08/26 05:00:44;;;;;;;;;2.00;2.00;;;;;;;;5077210;27;46024;-74
2022/08/26 05:03:10;;;;;;;;;0.33;0.33;;;;;;;;5076954;27;45295;-75
2022/08/26 05:05:39;;;;;;;;;2.00;2.00;;;;;;;;5076598;27;45434;-74
2022/08/26 05:08:05;;;;;;;;;1.33;1.33;;;;;;;;5077110;27;45440;-75
2022/08/26 05:10:33;;;;;;;;;1.33;1.33;;;;;;;;5076493;27;45319;-75
2022/08/26 05:12:59;;;;;;;;;1.67;1.67;;;;;;;;5077067;27;45435;-75
2022/08/26 05:15:24;;;;;;;;;2.00;2.00;;;;;;;;5076413;27;45375;-75
2022/08/26 05:17:49;;;;;;;;;1.33;1.33;;;;;;;;5076767;27;45419;-74
2022/08/26 05:20:15;;;;;;;;;1.33;1.33;;;;;;;;5076115;27;46152;-75
2022/08/26 05:22:40;;;;;;;;;0.33;0.33;;;;;;;;5076772;27;45315;-74
2022/08/26 05:25:05;;;;;;;;;2.00;2.00;;;;;;;;5077201;28;45483;-75
2022/08/26 05:27:30;;;;;;;;;1.00;1.00;;;;;;;;5076838;27;45375;-75
2022/08/26 05:29:56;;;;;;;;;2.00;2.00;;;;;;;;5076087;27;45638;-75
2022/08/26 05:32:21;;;;;;;;;1.33;1.33;;;;;;;;5075637;27;45329;-76
2022/08/26 05:34:46;;;;;;;;;2.00;1.00;;;;;;;;5076458;27;45295;-74
2022/08/26 05:37:11;;;;;;;;;2.00;2.00;;;;;;;;5076812;28;45257;-75
2022/08/26 05:39:37;;;;;;;;;2.00;2.00;;;;;;;;5075917;28;46360;-74
2022/08/26 05:42:04;;;;;;;;;0.33;0.33;;;;;;;;5076540;28;45523;-74
2022/08/26 05:44:29;;;;;;;;;1.33;1.33;;;;;;;;5076478;27;45424;-75
2022/08/26 05:46:54;;;;;;;;;2.00;2.00;;;;;;;;5073605;27;45403;-75
2022/08/26 05:49:20;;;;;;;;;3.00;3.00;;;;;;;;5075689;28;46112;-74
2022/08/26 05:51:45;;;;;;;;;2.00;1.00;;;;;;;;5075813;27;45465;-75
2022/08/26 05:54:11;;;;;;;;;3.00;2.33;;;;;;;;5076320;27;45381;-74
2022/08/26 05:56:36;;;;;;;;;2.33;2.33;;;;;;;;5075955;27;45336;-75
2022/08/26 05:59:02;;;;;;;;;2.00;2.00;;;;;;;;5076089;28;46306;-74
2022/08/26 06:01:28;;;;;;;;;1.00;1.00;;;;;;;;5076227;27;45345;-75
2022/08/26 06:03:57;;;;;;;;;3.00;3.00;;;;;;;;5075921;27;45326;-74
2022/08/26 06:06:24;;;;;;;;;2.00;2.00;;;;;;;;5075861;28;45276;-74
2022/08/26 06:08:49;;;;;;;;;0.67;0.67;;;;;;;;5075895;27;46251;-75
2022/08/26 06:11:16;;;;;;;;;2.00;2.00;;;;;;;;5075717;28;45407;-74
2022/08/26 06:13:41;;;;;;;;;2.00;2.00;;;;;;;;5076075;27;45509;-74
2022/08/26 06:16:13;;;;;;;;;2.67;2.67;;;;;;;;5075410;27;45540;-74
2022/08/26 06:18:40;;;;;;;;;12.00;11.67;;;;;;;;5075657;27;45451;-75
2022/08/26 06:21:23;;;;;;;;;20.25;17.50;;;;;;;;5075856;27;45459;-79
2022/08/26 06:26:34;;;;;;;;;18.00;16.25;;;;;;;;5075650;27;45371;-74
2022/08/26 06:29:00;;;;;;;;;18.50;18.50;;;;;;;;5074409;27;45832;-75
2022/08/26 06:31:26;;;;;;;;;14.75;14.25;;;;;;;;5075257;28;45436;-74
2022/08/26 06:33:51;;;;;;;;;20.50;18.75;;;;;;;;5075758;27;45403;-74
2022/08/26 06:36:18;;;;;;;;;16.00;16.00;;;;;;;;5075369;27;45360;-74
2022/08/26 06:38:43;;;;;;;;;20.00;17.25;;;;;;;;5057118;28;46094;-74
2022/08/26 06:41:11;;;;;;;;;17.75;16.25;;;;;;;;5075076;27;45457;-75
2022/08/26 06:43:37;;;;;;;;;18.25;17.25;;;;;;;;5075598;28;45206;-74
2022/08/26 06:46:05;;;;;;;;;18.25;16.00;;;;;;;;5075016;27;45423;-74
2022/08/26 06:48:30;;;;;;;;;16.75;16.50;;;;;;;;5056947;28;46307;-74
2022/08/26 06:51:07;;;;;;;;;22.25;19.50;;;;;;;;5075416;27;45385;-74
2022/08/26 06:53:33;;;;;;;;;17.00;13.50;;;;;;;;5075427;28;45437;-79
2022/08/26 06:56:01;;;;;;;;;19.50;17.25;;;;;;;;5075400;28;45505;-82
2022/08/26 06:58:26;;;;;;;;;17.50;15.00;;;;;;;;5075042;28;46115;-75
2022/08/26 07:00:52;;;;;;;;;14.00;14.00;;;;;;;;5074866;27;45309;-76
2022/08/26 07:03:17;;;;;;;;;15.25;14.75;;;;;;;;5075025;28;45290;-76
2022/08/26 07:05:42;;;;;;;;;18.25;16.75;;;;;;;;5075446;27;45277;-74
2022/08/26 07:08:07;;;;;;;;;15.50;15.50;;;;;;;;5074702;27;46129;-75
2022/08/26 07:10:32;;;;;;;;;17.75;16.75;;;;;;;;5075005;27;45431;-75
2022/08/26 07:12:58;;;;;;;;;19.50;15.50;;;;;;;;5075458;28;45462;-75
2022/08/26 07:15:23;;;;;;;;;15.75;14.50;;;;;;;;5074630;27;45430;-76
2022/08/26 07:17:48;;;;;;;;;13.00;12.00;;;;;;;;5074593;27;45911;-76
2022/08/26 07:20:13;;;;;;;;;14.50;12.50;;;;;;;;5072956;27;45367;-75
2022/08/26 07:22:39;;;;;;;;;13.00;10.25;;;;;;;;5074507;28;45396;-76
2022/08/26 07:25:07;;;;;;;;;9.33;9.00;;;;;;;;5056578;28;45362;-76
2022/08/26 07:27:37;;;;;;;;;12.75;12.25;;;;;;;;5074772;28;46144;-76
2022/08/26 07:30:03;;;;;;;;;17.75;14.75;;;;;;;;5074582;27;45388;-75
2022/08/26 07:32:28;;;;;;;;;12.25;12.00;;;;;;;;5074598;28;45306;-75
2022/08/26 07:34:53;;;;;;;;;17.75;13.25;;;;;;;;5074937;27;45576;-74
2022/08/26 07:37:18;;;;;;;;;12.33;11.67;;;;;;;;5074627;27;46135;-75
2022/08/26 07:39:44;;;;;;;;;19.67;9.67;;;;;;;;5074659;27;45391;-75
2022/08/26 07:42:12;;;;;;;;;9.75;8.50;;;;;;;;5077832;27;45363;-74
2022/08/26 07:44:38;;;;;;;;;11.33;10.67;;;;;;;;5077538;27;45321;-75
2022/08/26 07:47:04;;;;;;;;;10.67;9.00;;;;;;;;5077920;27;47328;-75
2022/08/26 07:49:29;;;;;;;;;9.67;9.00;;;;;;;;5077901;27;45335;-76
2022/08/26 07:51:55;;;;;;;;;11.67;11.67;;;;;;;;5077794;27;45468;-75
2022/08/26 07:54:20;;;;;;;;;13.75;12.00;;;;;;;;5078057;27;45312;-76
2022/08/26 07:56:46;;;;;;;;;10.00;10.00;;;;;;;;5077704;27;47187;-76
2022/08/26 07:59:12;;;;;;;;;9.25;8.25;;;;;;;;5077416;27;45404;-76
2022/08/26 08:01:37;;;;;;;;;11.00;10.00;;;;;;;;5077127;27;45347;-76
2022/08/26 08:04:04;;;;;;;;;10.33;10.00;;;;;;;;5078057;28;45365;-76
2022/08/26 08:06:29;;;;;;;;;12.33;10.33;;;;;;;;5077362;28;47027;-76
2022/08/26 08:08:55;;;;;;;;;9.00;9.00;;;;;;;;5077194;27;45795;-75
2022/08/26 08:11:21;;;;;;;;;10.67;9.00;;;;;;;;5077820;27;45352;-75
2022/08/26 08:13:47;;;;;;;;;8.00;8.00;;;;;;;;5076808;27;45294;-75
2022/08/26 08:16:12;;;;;;;;;6.67;6.67;;;;;;;;5077668;27;46000;-75
2022/08/26 08:18:38;;;;;;;;;8.00;8.00;;;;;;;;5077331;27;45330;-74
2022/08/26 08:21:04;;;;;;;;;6.33;6.33;;;;;;;;5077656;27;45465;-75
2022/08/26 08:23:30;;;;;;;;;6.33;6.00;;;;;;;;5077435;28;45470;-75
2022/08/26 08:26:06;;;;;;;;;7.00;7.00;;;;;;;;5076954;27;47419;-75
2022/08/26 08:28:31;;;;;;;;;8.00;6.67;;;;;;;;5076925;27;45346;-74
2022/08/26 08:30:57;;;;;;;;;5.67;5.33;;;;;;;;5076936;27;45368;-75
2022/08/26 08:33:22;;;;;;;;;5.33;5.33;;;;;;;;5077310;27;45316;-75
2022/08/26 08:35:48;;;;;;;;;6.33;5.00;;;;;;;;5077287;27;46336;-75
2022/08/26 08:38:13;;;;;;;;;4.00;4.00;;;;;;;;5077284;27;45362;-75
2022/08/26 08:40:40;;;;;;;;;5.00;5.00;;;;;;;;5077412;27;45432;-76
2022/08/26 08:43:09;;;;;;;;;8.00;6.33;;;;;;;;5076860;27;45472;-75
2022/08/26 08:45:40;;;;;;;;;7.67;7.67;;;;;;;;5076626;27;47054;-75
2022/08/26 08:48:15;;;;;;;;;8.67;7.33;;;;;;;;5076470;27;46483;-75
2022/08/26 08:50:45;;;;;;;;;7.00;6.33;;;;;;;;5077257;27;45340;-75
2022/08/26 08:53:42;;;;;;;;;4.25;4.25;;;;;;;;5076599;27;45405;-75
2022/08/26 08:56:15;;;;;;;;;6.67;6.00;;;;;;;;5013105;28;45497;-75
2022/08/26 08:58:47;;;;;;;;;9.33;9.33;;;;;;;;5014037;28;45483;-75
2022/08/26 09:01:21;;;;;;;;;6.00;6.00;;;;;;;;5014516;28;45382;-74
2022/08/26 09:03:46;;;;;;;;;5.00;5.00;;;;;;;;5052371;28;45518;-73
2022/08/26 09:06:17;;;;;;;;;5.33;5.33;;;;;;;;5054300;28;46178;-74
2022/08/26 09:08:47;;;;;;;;;5.67;5.00;;;;;;;;5054386;28;45443;-75
2022/08/26 09:11:13;;;;;;;;;4.67;4.67;;;;;;;;5054035;28;45437;-74
2022/08/26 09:13:38;;;;;;;;;7.67;7.00;;;;;;;;5054103;28;45326;-74
2022/08/26 09:16:12;;;;;;;;;8.00;7.00;;;;;;;;5054242;28;45349;-75
2022/08/26 09:18:53;;;;;;;;;5.33;5.33;;;;;;;;5053744;28;45396;-74
2022/08/26 09:21:19;;;;;;;;;6.67;5.33;;;;;;;;5053718;28;45432;-74
2022/08/26 09:23:45;;;;;;;;;4.67;4.67;;;;;;;;5054023;28;45306;-74
2022/08/26 09:26:21;;;;;;;;;4.00;3.67;;;;;;;;5053297;28;45458;-75
2022/08/26 09:28:52;;;;;;;;;5.33;5.00;;;;;;;;5053817;28;45470;-74
2022/08/26 09:31:23;;;;;;;;;3.00;3.00;;;;;;;;5061303;28;45362;-75
2022/08/26 09:34:02;;;;;;;;;3.00;3.00;;;;;;;;5090446;27;45505;-75
2022/08/26 09:36:33;;;;;;;;;3.00;3.00;;;;;;;;5096248;27;45303;-75
2022/08/26 09:38:59;;;;;;;;;2.00;2.00;;;;;;;;5096813;27;45350;-75
2022/08/26 09:41:31;;;;;;;;;5.00;5.00;;;;;;;;5096267;27;45464;-75
2022/08/26 09:44:17;;;;;;;;;5.00;4.33;;;;;;;;5096842;27;45347;-75
2022/08/26 09:46:51;;;;;;;;;2.67;2.67;;;;;;;;5096526;27;46021;-74
2022/08/26 09:49:20;;;;;;;;;5.67;4.00;;;;;;;;5096392;27;45344;-74
2022/08/26 09:51:45;;;;;;;;;5.00;5.00;;;;;;;;5096513;27;45456;-74
2022/08/26 09:54:22;;;;;;;;;4.00;4.00;;;;;;;;5096307;27;45413;-75
2022/08/26 09:56:48;;;;;;;;;3.67;3.67;;;;;;;;5096371;27;45324;-74
2022/08/26 09:59:27;;;;;;;;;5.25;4.25;;;;;;;;5096413;27;45434;-74
2022/08/26 10:01:53;;;;;;;;;4.33;4.33;;;;;;;;5093004;27;45425;-74
2022/08/26 10:04:20;;;;;;;;;5.00;5.00;;;;;;;;5074815;27;45384;-74
2022/08/26 10:06:56;;;;;;;;;4.00;4.00;;;;;;;;5075295;27;46327;-74
2022/08/26 10:09:22;;;;;;;;;6.00;5.33;;;;;;;;5075242;28;45408;-75
2022/08/26 10:11:52;;;;;;;;;7.00;5.33;;;;;;;;5075764;27;45328;-75
2022/08/26 10:14:23;;;;;;;;;5.33;3.67;;;;;;;;5075822;28;45527;-75
2022/08/26 10:16:59;;;;;;;;;6.00;6.00;;;;;;;;5075587;27;46486;-75
2022/08/26 10:19:32;;;;;;;;;5.00;4.00;;;;;;;;5062899;27;45427;-75
2022/08/26 10:22:02;;;;;;;;;5.00;5.00;;;;;;;;5075587;28;45316;-76
2022/08/26 10:24:36;;;;;;;;;5.33;4.00;;;;;;;;5074229;27;45943;-75
2022/08/26 10:27:09;;;;;;;;;7.00;5.67;;;;;;;;5078319;27;47253;-74
2022/08/26 10:29:45;;;;;;;;;6.00;6.00;;;;;;;;5088224;27;45431;-77
2022/08/26 10:32:15;;;;;;;;;4.33;4.00;;;;;;;;5093099;27;45284;-75
2022/08/26 10:34:41;;;;;;;;;6.67;4.00;;;;;;;;5078969;27;45734;-74
2022/08/26 10:37:10;;;;;;;;;3.67;3.67;;;;;;;;5074914;27;46123;-75
2022/08/26 10:39:43;;;;;;;;;5.00;5.00;;;;;;;;5075073;28;45518;-74
2022/08/26 10:42:24;;;;;;;;;5.67;4.33;;;;;;;;5075596;28;45455;-74
2022/08/26 10:44:52;;;;;;;;;6.00;6.00;;;;;;;;5057149;28;45359;-75
2022/08/26 10:47:24;;;;;;;;;5.33;5.33;;;;;;;;5075459;28;47222;-76
2022/08/26 10:49:51;;;;;;;;;6.33;5.00;;;;;;;;5075275;28;45363;-75
2022/08/26 10:52:27;;;;;;;;;7.33;7.33;;;;;;;;5079677;27;45415;-75
2022/08/26 10:54:55;;;;;;;;;4.33;4.33;;;;;;;;5085913;27;45452;-74
2022/08/26 10:57:39;;;;;;;;;9.00;7.33;;;;;;;;5080258;27;46386;-73
2022/08/26 11:03:10;;;;;;;;;4.00;4.00;;;;;;;;5087302;27;45310;-73
2022/08/26 11:05:35;;;;;;;;;4.67;4.67;;;;;;;;5095654;27;45441;-73
2022/08/26 11:08:18;;;;;;;;;5.33;5.00;;;;;;;;5094978;27;46064;-74
2022/08/26 11:11:01;;;;;;;;;3.33;3.33;;;;;;;;5095595;27;45429;-74
2022/08/26 11:13:45;;;;;;;;;5.00;5.00;;;;;;;;5095594;27;45426;-74
2022/08/26 11:16:30;;;;;;;;;6.33;5.33;;;;;;;;5097881;27;45313;-73
2022/08/26 11:18:55;;;;;;;;;3.67;3.67;;;;;;;;5097996;27;46345;-71
2022/08/26 11:21:39;;;;;;;;;3.33;3.33;;;;;;;;5098316;27;45347;-72
2022/08/26 11:24:05;;;;;;;;;4.33;4.33;;;;;;;;5093051;27;45533;-71
2022/08/26 11:26:34;;;;;;;;;3.33;3.33;;;;;;;;5098037;27;45672;-73
2022/08/26 11:29:00;;;;;;;;;5.00;5.00;;;;;;;;5098603;27;47050;-74
2022/08/26 11:31:25;;;;;;;;;3.67;3.67;;;;;;;;5098179;27;45478;-73
2022/08/26 11:33:52;;;;;;;;;4.33;4.33;;;;;;;;5098704;27;45423;-73
2022/08/26 11:36:37;;;;;;;;;4.00;4.00;;;;;;;;5097782;27;45354;-73
2022/08/26 11:39:20;;;;;;;;;3.00;3.00;;;;;;;;5098057;27;46217;-73
2022/08/26 11:41:46;;;;;;;;;3.00;3.00;;;;;;;;5097514;27;45392;-73
2022/08/26 11:44:16;;;;;;;;;4.67;4.33;;;;;;;;5097267;27;45448;-73
2022/08/26 11:46:50;;;;;;;;;4.67;4.67;;;;;;;;5098503;27;45611;-73
2022/08/26 11:49:15;;;;;;;;;4.33;3.00;;;;;;;;5098148;27;46231;-75
2022/08/26 11:51:41;;;;;;;;;3.67;3.67;;;;;;;;5097228;27;45469;-72
2022/08/26 11:54:08;;;;;;;;;5.33;5.33;;;;;;;;5098679;27;45632;-72
2022/08/26 11:56:34;;;;;;;;;4.00;4.00;;;;;;;;5097775;27;45446;-70
2022/08/26 11:59:02;;;;;;;;;3.00;3.00;;;;;;;;5098066;27;46227;-72
2022/08/26 12:01:34;;;;;;;;;2.67;2.33;;;;;;;;5097840;27;45382;-74
2022/08/26 12:04:00;;;;;;;;;3.00;3.00;;;;;;;;5097961;27;45394;-72
2022/08/26 12:06:27;;;;;;;;;4.00;4.00;;;;;;;;5097360;27;45427;-73
2022/08/26 12:08:53;;;;;;;;;2.33;2.00;;;;;;;;5097848;27;45378;-72
2022/08/26 12:11:23;;;;;;;;;3.00;3.00;;;;;;;;5097676;27;45351;-72
2022/08/26 12:14:05;;;;;;;;;2.67;2.67;;;;;;;;5096729;27;45430;-72
2022/08/26 12:16:32;;;;;;;;;4.00;3.00;;;;;;;;5097486;27;45453;-72
2022/08/26 12:18:58;;;;;;;;;4.00;4.00;;;;;;;;5096828;27;46220;-73
2022/08/26 12:21:25;;;;;;;;;3.00;3.00;;;;;;;;5097499;27;45395;-71
2022/08/26 12:23:53;;;;;;;;;5.00;3.00;;;;;;;;5097622;27;45480;-71
2022/08/26 12:26:24;;;;;;;;;3.67;3.67;;;;;;;;5096678;27;45427;-71
2022/08/26 12:28:55;;;;;;;;;4.33;4.33;;;;;;;;5097560;27;46396;-71
2022/08/26 12:31:25;;;;;;;;;3.67;3.67;;;;;;;;5097699;27;45457;-71
2022/08/26 12:33:51;;;;;;;;;4.00;4.00;;;;;;;;5097307;27;45291;-71
2022/08/26 12:36:21;;;;;;;;;4.67;3.00;;;;;;;;5097276;27;45531;-71
2022/08/26 12:38:47;;;;;;;;;4.33;4.00;;;;;;;;5097468;27;46386;-71
2022/08/26 12:41:32;;;;;;;;;2.67;2.67;;;;;;;;5097392;27;45353;-71
2022/08/26 12:43:57;;;;;;;;;3.00;3.00;;;;;;;;5088482;27;45413;-71
2022/08/26 12:46:25;;;;;;;;;3.67;3.67;;;;;;;;5097325;27;45385;-71
2022/08/26 12:48:50;;;;;;;;;3.67;3.67;;;;;;;;5096634;27;46352;-71
2022/08/26 12:51:26;;;;;;;;;3.67;3.67;;;;;;;;5096901;27;45279;-71
2022/08/26 12:53:52;;;;;;;;;2.33;2.33;;;;;;;;5097362;27;45393;-71
2022/08/26 12:56:20;;;;;;;;;2.33;2.33;;;;;;;;5097255;27;45252;-71
2022/08/26 12:58:58;;;;;;;;;3.33;2.33;;;;;;;;5097063;27;45394;-71
2022/08/26 13:01:23;;;;;;;;;2.67;2.67;;;;;;;;5124378;27;46440;-71
2022/08/26 13:03:49;;;;;;;;;1.67;1.67;;;;;;;;5077129;27;45452;-71
2022/08/26 13:06:28;;;;;;;;;3.00;3.00;;;;;;;;5058584;28;45451;-71
2022/08/26 13:08:53;;;;;;;;;1.67;1.67;;;;;;;;5076379;27;46515;-72
2022/08/26 13:11:29;;;;;;;;;2.00;2.00;;;;;;;;5076710;27;45413;-72
2022/08/26 13:14:15;;;;;;;;;3.00;3.00;;;;;;;;5076816;27;45438;-71
2022/08/26 13:16:40;;;;;;;;;1.67;1.67;;;;;;;;5076300;27;45537;-72
2022/08/26 13:19:07;;;;;;;;;2.00;2.00;;;;;;;;5063528;27;46122;-71
2022/08/26 13:21:34;;;;;;;;;3.00;2.00;;;;;;;;5076478;27;45332;-72
2022/08/26 13:24:01;;;;;;;;;2.00;1.67;;;;;;;;5076128;27;45281;-72
2022/08/26 13:26:27;;;;;;;;;3.00;2.00;;;;;;;;5076462;27;45383;-72
2022/08/26 13:28:53;;;;;;;;;3.00;1.33;;;;;;;;5076406;27;46300;-72
2022/08/26 13:31:19;;;;;;;;;1.67;1.67;;;;;;;;5075784;28;45514;-71
2022/08/26 13:33:44;;;;;;;;;4.00;2.33;;;;;;;;5075899;28;45352;-71
2022/08/26 13:36:10;;;;;;;;;1.33;1.33;;;;;;;;5076248;27;45297;-72
2022/08/26 13:38:36;;;;;;;;;1.33;1.33;;;;;;;;5075708;28;46289;-72
2022/08/26 13:41:02;;;;;;;;;1.00;1.00;;;;;;;;5076022;27;45350;-72
2022/08/26 13:43:27;;;;;;;;;3.67;2.33;;;;;;;;5076508;28;45460;-72
2022/08/26 13:45:53;;;;;;;;;3.00;3.00;;;;;;;;5075747;28;45429;-72
2022/08/26 13:48:18;;;;;;;;;2.33;2.33;;;;;;;;5057182;28;47152;-72
2022/08/26 13:50:44;;;;;;;;;2.67;1.67;;;;;;;;5075968;27;45412;-72
2022/08/26 13:53:09;;;;;;;;;1.33;1.00;;;;;;;;5075936;27;45553;-72
2022/08/26 13:55:35;;;;;;;;;3.00;1.67;;;;;;;;5076204;28;45475;-72
2022/08/26 13:58:00;;;;;;;;;3.00;3.00;;;;;;;;5075762;27;45366;-72
2022/08/26 14:00:25;;;;;;;;;1.00;1.00;;;;;;;;5075519;28;45410;-72
2022/08/26 14:02:50;;;;;;;;;3.00;3.00;;;;;;;;5075536;27;45269;-72
2022/08/26 14:05:16;;;;;;;;;2.00;2.00;;;;;;;;5075581;27;45418;-72
2022/08/26 14:07:41;;;;;;;;;3.33;1.33;;;;;;;;5075674;27;45740;-72
2022/08/26 14:10:06;;;;;;;;;3.67;3.00;;;;;;;;5057674;28;46373;-72
2022/08/26 14:12:31;;;;;;;;;3.33;3.33;;;;;;;;5075663;28;45451;-72
2022/08/26 14:14:57;;;;;;;;;3.67;2.33;;;;;;;;5075690;28;45401;-72
2022/08/26 14:17:25;;;;;;;;;3.33;2.00;;;;;;;;5075606;27;46568;-73
2022/08/26 14:19:51;;;;;;;;;3.00;2.00;;;;;;;;5075545;28;45445;-72
2022/08/26 14:22:17;;;;;;;;;2.33;2.33;;;;;;;;5075600;27;45277;-72
2022/08/26 14:24:43;;;;;;;;;3.67;2.33;;;;;;;;5075416;28;45411;-72
2022/08/26 14:27:08;;;;;;;;;3.00;3.00;;;;;;;;5075152;27;46006;-72
2022/08/26 14:29:33;;;;;;;;;3.67;3.00;;;;;;;;5075016;28;45418;-72
2022/08/26 14:32:01;;;;;;;;;2.00;2.00;;;;;;;;5057459;28;45287;-72
2022/08/26 14:34:26;;;;;;;;;2.00;2.00;;;;;;;;5075248;28;45549;-72
2022/08/26 14:36:52;;;;;;;;;2.00;2.00;;;;;;;;5075148;28;46011;-72
2022/08/26 14:39:17;;;;;;;;;2.00;1.33;;;;;;;;5075130;27;45368;-73
2022/08/26 14:41:49;;;;;;;;;2.67;2.67;;;;;;;;5075583;27;45586;-72
2022/08/26 14:44:16;;;;;;;;;0.67;0.67;;;;;;;;5074955;28;45292;-72
2022/08/26 14:46:43;;;;;;;;;2.67;2.67;;;;;;;;5075030;28;47141;-72
2022/08/26 14:49:09;;;;;;;;;2.33;2.33;;;;;;;;5074989;27;45384;-72